PWSweather.com
Personal Weather Stations
Station Observations

ChardChardGB

Lat: 50.877408, Lon: -2.94964741

Elevation: 341

Station Type: WS3083

http://www.merriott-astro.co.uk/weather/index.htm

High Low Average
Temperature 52.9°F11.6°C 42.6°F5.9°C 45.8°F7.7°C
Dew Point 48.1°F8.9°C 34.6°F1.4°C 37.6°F3.1°C
Winds 16.8 mph 27.0 kmh Calm Calm 7.0 mph SSW11.3 kmh SSW
Wind Gusts 25.1 mph40.4 kmh -- 10.0 mph16.1 kmh
Humidity 88% 53% 74%
Pressure 29.56 in1001.0 mb 29.27 in991.2 mb -
Precipitation 0.38 in9.7 mm - -
Hour Temp Dew Point Humidity Winds Wind Gusts Pressure Precip Precip Rate Daily Precip Total
12:00 AM 52.2°F11.2°C 48.1°F8.9°C 86% 16.8 mph NW27.0 kmh NW 16.8 mph27.0 kmh 29.33 in993.2 mb 0.00 in0.0 mm 0.00 in0.0 mm 0.00 in0.0 mm
12:10 AM 44.4°F6.9°C 36.0°F2.2°C 72% 10.6 mph SW17.1 kmh SW 15.2 mph24.5 kmh 29.34 in993.6 mb 0.00 in0.0 mm 0.00 in0.0 mm 0.00 in0.0 mm
12:20 AM 44.4°F6.9°C 36.0°F2.2°C 72% 9.7 mph SW15.6 kmh SW 16.8 mph27.0 kmh 29.34 in993.6 mb 0.00 in0.0 mm 0.00 in0.0 mm 0.00 in0.0 mm
12:30 AM 44.2°F6.8°C 35.4°F1.9°C 71% 10.2 mph WSW16.4 kmh WSW 16.8 mph27.0 kmh 29.34 in993.6 mb 0.00 in0.0 mm 0.00 in0.0 mm 0.00 in0.0 mm
12:40 AM 44.2°F6.8°C 35.8°F2.1°C 72% 10.9 mph WSW17.5 kmh WSW 17.4 mph28.0 kmh 29.34 in993.6 mb 0.00 in0.0 mm 0.00 in0.0 mm 0.00 in0.0 mm
12:50 AM 44.2°F6.8°C 35.4°F1.9°C 71% 10.1 mph SW16.3 kmh SW 13.0 mph20.9 kmh 29.35 in993.9 mb 0.00 in0.0 mm 0.00 in0.0 mm 0.00 in0.0 mm
01:00 AM 44.1°F6.7°C 35.3°F1.8°C 71% 11.0 mph W17.7 kmh W 16.8 mph27.0 kmh 29.36 in994.2 mb 0.00 in0.0 mm 0.00 in0.0 mm 0.00 in0.0 mm
01:10 AM 43.7°F6.5°C 34.9°F1.6°C 71% 7.6 mph SW12.2 kmh SW 9.8 mph15.8 kmh 29.36 in994.2 mb 0.00 in0.0 mm 0.00 in0.0 mm 0.00 in0.0 mm
01:20 AM 43.5°F6.4°C 35.1°F1.7°C 72% 8.3 mph SW13.4 kmh SW 12.1 mph19.5 kmh 29.36 in994.2 mb 0.00 in0.0 mm 0.00 in0.0 mm 0.00 in0.0 mm
01:30 AM 43.9°F6.6°C 35.4°F1.9°C 72% 12.8 mph S20.6 kmh S 19.0 mph30.6 kmh 29.36 in994.2 mb 0.00 in0.0 mm 0.00 in0.0 mm 0.00 in0.0 mm
01:40 AM 43.9°F6.6°C 35.4°F1.9°C 72% 10.1 mph SW16.3 kmh SW 13.0 mph20.9 kmh 29.36 in994.2 mb 0.00 in0.0 mm 0.00 in0.0 mm 0.00 in0.0 mm
01:50 AM 43.9°F6.6°C 35.1°F1.7°C 71% 8.6 mph WSW13.8 kmh WSW 11.4 mph18.3 kmh 29.36 in994.2 mb 0.00 in0.0 mm 0.00 in0.0 mm 0.00 in0.0 mm
02:00 AM 43.7°F6.5°C 34.6°F1.4°C 70% 8.4 mph S13.5 kmh S 10.7 mph17.2 kmh 29.37 in994.6 mb 0.00 in0.0 mm 0.00 in0.0 mm 0.00 in0.0 mm
02:10 AM 43.5°F6.4°C 34.8°F1.6°C 71% 7.9 mph WSW12.7 kmh WSW 13.0 mph20.9 kmh 29.37 in994.6 mb 0.00 in0.0 mm 0.00 in0.0 mm 0.00 in0.0 mm
02:20 AM 43.9°F6.6°C 35.1°F1.7°C 71% 7.5 mph SW12.1 kmh SW 10.7 mph17.2 kmh 29.37 in994.6 mb 0.00 in0.0 mm 0.00 in0.0 mm 0.00 in0.0 mm
02:30 AM 44.2°F6.8°C 35.1°F1.7°C 70% 11.1 mph S17.9 kmh S 16.8 mph27.0 kmh 29.37 in994.6 mb 0.00 in0.0 mm 0.00 in0.0 mm 0.00 in0.0 mm
02:40 AM 44.4°F6.9°C 35.3°F1.8°C 70% 12.6 mph WSW20.3 kmh WSW 17.4 mph28.0 kmh 29.38 in994.9 mb 0.00 in0.0 mm 0.00 in0.0 mm 0.00 in0.0 mm
02:50 AM 44.4°F6.9°C 35.6°F2.0°C 71% 12.2 mph SW19.6 kmh SW 18.3 mph29.5 kmh 29.39 in995.3 mb 0.00 in0.0 mm 0.00 in0.0 mm 0.00 in0.0 mm
03:00 AM 43.9°F6.6°C 35.8°F2.1°C 73% 10.4 mph W16.7 kmh W 13.6 mph21.9 kmh 29.39 in995.3 mb 0.00 in0.0 mm 0.00 in0.0 mm 0.00 in0.0 mm
03:10 AM 43.2°F6.2°C 35.8°F2.1°C 75% 7.2 mph SW11.6 kmh SW 9.8 mph15.8 kmh 29.39 in995.3 mb 0.00 in0.0 mm 0.00 in0.0 mm 0.00 in0.0 mm
03:20 AM 43.0°F6.1°C 35.9°F2.2°C 76% 7.6 mph SSW12.2 kmh SSW 12.1 mph19.5 kmh 29.39 in995.3 mb 0.00 in0.0 mm 0.00 in0.0 mm 0.00 in0.0 mm
03:30 AM 43.2°F6.2°C 36.1°F2.3°C 76% 5.9 mph SW9.5 kmh SW 7.6 mph12.2 kmh 29.40 in995.6 mb 0.00 in0.0 mm 0.00 in0.0 mm 0.00 in0.0 mm
03:40 AM 43.0°F6.1°C 36.3°F2.4°C 77% 5.9 mph W9.5 kmh W 9.8 mph15.8 kmh 29.41 in995.9 mb 0.04 in1.0 mm 0.24 in6.1 mm 0.04 in1.0 mm
03:50 AM 42.6°F5.9°C 36.9°F2.7°C 80% 6.9 mph SSW11.1 kmh SSW 12.1 mph19.5 kmh 29.40 in995.6 mb 0.05 in1.3 mm 0.06 in1.5 mm 0.05 in1.3 mm
04:00 AM 42.8°F6.0°C 37.1°F2.8°C 80% 7.7 mph SW12.4 kmh SW 15.2 mph24.5 kmh 29.39 in995.3 mb 0.05 in1.3 mm 0.00 in0.0 mm 0.05 in1.3 mm
04:10 AM 43.0°F6.1°C 37.2°F2.9°C 80% 8.0 mph WSW12.9 kmh WSW 15.2 mph24.5 kmh 29.39 in995.3 mb 0.05 in1.3 mm 0.00 in0.0 mm 0.05 in1.3 mm
04:20 AM 43.2°F6.2°C 37.4°F3.0°C 80% 6.4 mph SSW10.3 kmh SSW 9.8 mph15.8 kmh 29.40 in995.6 mb 0.05 in1.3 mm 0.00 in0.0 mm 0.05 in1.3 mm
04:30 AM 43.9°F6.6°C 37.5°F3.1°C 78% 8.8 mph SW14.2 kmh SW 14.5 mph23.3 kmh 29.41 in995.9 mb 0.05 in1.3 mm 0.00 in0.0 mm 0.05 in1.3 mm
04:40 AM 43.9°F6.6°C 37.1°F2.8°C 77% 6.8 mph W10.9 kmh W 10.7 mph17.2 kmh 29.42 in996.3 mb 0.02 in0.5 mm 0.00 in0.0 mm 0.06 in1.5 mm
04:50 AM 43.9°F6.6°C 37.1°F2.8°C 77% 12.2 mph SW19.6 kmh SW 25.1 mph40.4 kmh 29.42 in996.3 mb 0.01 in0.3 mm 0.00 in0.0 mm 0.06 in1.5 mm
05:00 AM 43.7°F6.5°C 37.0°F2.8°C 77% 8.6 mph SW13.8 kmh SW 17.4 mph28.0 kmh 29.43 in996.6 mb 0.01 in0.3 mm 0.00 in0.0 mm 0.06 in1.5 mm
05:10 AM 43.5°F6.4°C 36.5°F2.5°C 76% 9.9 mph SSW15.9 kmh SSW 17.4 mph28.0 kmh 29.42 in996.3 mb 0.01 in0.3 mm 0.00 in0.0 mm 0.06 in1.5 mm
05:20 AM 43.5°F6.4°C 36.1°F2.3°C 75% 9.6 mph SW15.4 kmh SW 11.4 mph18.3 kmh 29.43 in996.6 mb 0.01 in0.3 mm 0.00 in0.0 mm 0.06 in1.5 mm
05:30 AM 43.3°F6.3°C 36.3°F2.4°C 76% 9.0 mph SW14.5 kmh SW 10.7 mph17.2 kmh 29.43 in996.6 mb 0.01 in0.3 mm 0.00 in0.0 mm 0.06 in1.5 mm
05:40 AM 43.3°F6.3°C 36.3°F2.4°C 76% 9.9 mph SW15.9 kmh SW 14.5 mph23.3 kmh 29.44 in997.0 mb 0.00 in0.0 mm 0.00 in0.0 mm 0.06 in1.5 mm
05:50 AM 43.7°F6.5°C 36.6°F2.6°C 76% 9.6 mph WSW15.4 kmh WSW 12.1 mph19.5 kmh 29.44 in997.0 mb 0.00 in0.0 mm 0.00 in0.0 mm 0.06 in1.5 mm
06:00 AM 43.9°F6.6°C 36.5°F2.5°C 75% 7.4 mph SSW11.9 kmh SSW 12.1 mph19.5 kmh 29.44 in997.0 mb 0.00 in0.0 mm 0.00 in0.0 mm 0.06 in1.5 mm
06:10 AM 43.5°F6.4°C 36.1°F2.3°C 75% 7.1 mph W11.4 kmh W 10.7 mph17.2 kmh 29.44 in997.0 mb 0.00 in0.0 mm 0.00 in0.0 mm 0.06 in1.5 mm
06:20 AM 43.3°F6.3°C 36.0°F2.2°C 75% 7.8 mph SW12.6 kmh SW 11.4 mph18.3 kmh 29.44 in997.0 mb 0.00 in0.0 mm 0.00 in0.0 mm 0.06 in1.5 mm
06:30 AM 43.5°F6.4°C 35.8°F2.1°C 74% 9.4 mph WSW15.1 kmh WSW 11.4 mph18.3 kmh 29.45 in997.3 mb 0.00 in0.0 mm 0.00 in0.0 mm 0.06 in1.5 mm
06:40 AM 43.5°F6.4°C 35.8°F2.1°C 74% 7.7 mph SSW12.4 kmh SSW 9.8 mph15.8 kmh 29.44 in997.0 mb 0.00 in0.0 mm 0.00 in0.0 mm 0.06 in1.5 mm
06:50 AM 43.7°F6.5°C 35.6°F2.0°C 73% 7.8 mph WSW12.6 kmh WSW 9.8 mph15.8 kmh 29.44 in997.0 mb 0.00 in0.0 mm 0.00 in0.0 mm 0.06 in1.5 mm
07:00 AM 43.9°F6.6°C 36.1°F2.3°C 74% 12.6 mph SW20.3 kmh SW 22.8 mph36.7 kmh 29.46 in997.6 mb 0.01 in0.3 mm 0.01 in0.3 mm 0.07 in1.8 mm
07:10 AM 43.3°F6.3°C 36.6°F2.6°C 77% 11.0 mph WSW17.7 kmh WSW 13.6 mph21.9 kmh 29.46 in997.6 mb 0.02 in0.5 mm 0.06 in1.5 mm 0.08 in2.0 mm
07:20 AM 43.2°F6.2°C 37.4°F3.0°C 80% 9.2 mph WNW14.8 kmh WNW 11.4 mph18.3 kmh 29.47 in998.0 mb 0.04 in1.0 mm 0.12 in3.0 mm 0.09 in2.3 mm
07:30 AM 43.5°F6.4°C 37.8°F3.2°C 80% 6.4 mph W10.3 kmh W 10.7 mph17.2 kmh 29.48 in998.3 mb 0.04 in1.0 mm 0.00 in0.0 mm 0.09 in2.3 mm
07:40 AM 44.1°F6.7°C 38.0°F3.3°C 79% 8.9 mph W14.3 kmh W 14.5 mph23.3 kmh 29.48 in998.3 mb 0.04 in1.0 mm 0.00 in0.0 mm 0.09 in2.3 mm
07:50 AM 44.2°F6.8°C 37.2°F2.9°C 76% 7.5 mph WSW12.1 kmh WSW 12.1 mph19.5 kmh 29.49 in998.6 mb 0.04 in1.0 mm 0.00 in0.0 mm 0.09 in2.3 mm
08:00 AM 44.6°F7.0°C 36.8°F2.7°C 74% 9.6 mph SW15.4 kmh SW 13.0 mph20.9 kmh 29.48 in998.3 mb 0.01 in0.3 mm 0.00 in0.0 mm 0.09 in2.3 mm
08:10 AM 44.8°F7.1°C 37.0°F2.8°C 74% 6.3 mph WSW10.1 kmh WSW 9.8 mph15.8 kmh 29.50 in999.0 mb 0.00 in0.0 mm 0.00 in0.0 mm 0.09 in2.3 mm
08:20 AM 44.4°F6.9°C 37.3°F2.9°C 76% 9.3 mph WSW15.0 kmh WSW 17.4 mph28.0 kmh 29.51 in999.3 mb 0.02 in0.5 mm 0.12 in3.0 mm 0.12 in3.0 mm
08:30 AM 43.7°F6.5°C 36.3°F2.4°C 75% 12.4 mph WSW20.0 kmh WSW 19.0 mph30.6 kmh 29.51 in999.3 mb 0.02 in0.5 mm 0.00 in0.0 mm 0.12 in3.0 mm
08:40 AM 43.3°F6.3°C 36.3°F2.4°C 76% 8.3 mph S13.4 kmh S 12.1 mph19.5 kmh 29.51 in999.3 mb 0.02 in0.5 mm 0.00 in0.0 mm 0.12 in3.0 mm
08:50 AM 43.9°F6.6°C 37.5°F3.1°C 78% 2.5 mph NW4.0 kmh NW 7.6 mph12.2 kmh 29.51 in999.3 mb 0.02 in0.5 mm 0.00 in0.0 mm 0.12 in3.0 mm
09:00 AM 44.6°F7.0°C 38.5°F3.6°C 79% 3.3 mph WNW5.3 kmh WNW 8.3 mph13.4 kmh 29.53 in1000.0 mb 0.04 in1.0 mm 0.02 in0.5 mm 0.13 in3.3 mm
09:10 AM 43.0°F6.1°C 36.6°F2.6°C 78% 11.1 mph WNW17.9 kmh WNW 19.0 mph30.6 kmh 29.52 in999.7 mb 0.06 in1.5 mm 0.12 in3.0 mm 0.15 in3.8 mm
09:20 AM 43.2°F6.2°C 37.4°F3.0°C 80% 8.1 mph WSW13.0 kmh WSW 11.4 mph18.3 kmh 29.51 in999.3 mb 0.04 in1.0 mm 0.00 in0.0 mm 0.15 in3.8 mm
09:30 AM 43.7°F6.5°C 37.9°F3.3°C 80% 4.4 mph SW7.1 kmh SW 9.2 mph14.8 kmh 29.52 in999.7 mb 0.04 in1.0 mm 0.00 in0.0 mm 0.15 in3.8 mm
09:40 AM 44.6°F7.0°C 38.8°F3.8°C 80% 1.7 mph SW2.7 kmh SW 5.4 mph8.7 kmh 29.52 in999.7 mb 0.04 in1.0 mm 0.00 in0.0 mm 0.15 in3.8 mm
09:50 AM 45.3°F7.4°C 39.5°F4.2°C 80% 0.7 mph W1.1 kmh W 8.3 mph13.4 kmh 29.53 in1000.0 mb 0.04 in1.0 mm 0.00 in0.0 mm 0.15 in3.8 mm
10:00 AM 46.4°F8.0°C 37.5°F3.1°C 71% 9.0 mph W14.5 kmh W 17.4 mph28.0 kmh 29.53 in1000.0 mb 0.04 in1.0 mm 0.00 in0.0 mm 0.17 in4.3 mm
10:10 AM 46.9°F8.3°C 37.7°F3.2°C 70% 7.1 mph WSW11.4 kmh WSW 13.0 mph20.9 kmh 29.53 in1000.0 mb 0.01 in0.3 mm 0.00 in0.0 mm 0.17 in4.3 mm
10:20 AM 47.1°F8.4°C 37.8°F3.2°C 70% 7.2 mph WSW11.6 kmh WSW 12.1 mph19.5 kmh 29.54 in1000.3 mb 0.01 in0.3 mm 0.00 in0.0 mm 0.17 in4.3 mm
10:30 AM 46.9°F8.3°C 37.7°F3.2°C 70% 9.0 mph W14.5 kmh W 12.1 mph19.5 kmh 29.54 in1000.3 mb 0.01 in0.3 mm 0.00 in0.0 mm 0.17 in4.3 mm
10:40 AM 46.6°F8.1°C 37.7°F3.2°C 71% 4.3 mph NW6.9 kmh NW 9.8 mph15.8 kmh 29.55 in1000.7 mb 0.02 in0.5 mm 0.06 in1.5 mm 0.18 in4.6 mm
10:50 AM 46.8°F8.2°C 38.2°F3.4°C 72% 1.0 mph SSW1.6 kmh SSW 4.5 mph7.2 kmh 29.55 in1000.7 mb 0.02 in0.5 mm 0.00 in0.0 mm 0.18 in4.6 mm
11:00 AM 47.5°F8.6°C 38.6°F3.7°C 71% 4.4 mph WNW7.1 kmh WNW 10.7 mph17.2 kmh 29.55 in1000.7 mb 0.01 in0.3 mm 0.00 in0.0 mm 0.18 in4.6 mm
11:10 AM 48.2°F9.0°C 38.5°F3.6°C 69% 9.8 mph NW15.8 kmh NW 13.6 mph21.9 kmh 29.55 in1000.7 mb 0.01 in0.3 mm 0.00 in0.0 mm 0.18 in4.6 mm
11:20 AM 48.7°F9.3°C 37.5°F3.1°C 65% 10.0 mph WSW16.1 kmh WSW 13.6 mph21.9 kmh 29.55 in1000.7 mb 0.01 in0.3 mm 0.00 in0.0 mm 0.18 in4.6 mm
11:30 AM 49.3°F9.6°C 37.6°F3.1°C 64% 10.3 mph SW16.6 kmh SW 14.5 mph23.3 kmh 29.56 in1001.0 mb 0.01 in0.3 mm 0.00 in0.0 mm 0.18 in4.6 mm
11:40 AM 50.0°F10.0°C 37.9°F3.3°C 63% 8.6 mph WSW13.8 kmh WSW 17.4 mph28.0 kmh 29.56 in1001.0 mb 0.00 in0.0 mm 0.00 in0.0 mm 0.18 in4.6 mm
11:50 AM 50.2°F10.1°C 37.7°F3.2°C 62% 9.7 mph WSW15.6 kmh WSW 17.4 mph28.0 kmh 29.56 in1001.0 mb 0.00 in0.0 mm 0.00 in0.0 mm 0.18 in4.6 mm
12:00 PM 50.2°F10.1°C 37.3°F2.9°C 61% 11.2 mph WSW18.0 kmh WSW 17.4 mph28.0 kmh 29.55 in1000.7 mb 0.00 in0.0 mm 0.00 in0.0 mm 0.18 in4.6 mm
12:10 PM 50.2°F10.1°C 36.8°F2.7°C 60% 13.3 mph SW21.4 kmh SW 19.0 mph30.6 kmh 29.56 in1001.0 mb 0.00 in0.0 mm 0.00 in0.0 mm 0.18 in4.6 mm
12:20 PM 50.7°F10.4°C 37.4°F3.0°C 60% 10.9 mph S17.5 kmh S 14.5 mph23.3 kmh 29.56 in1001.0 mb 0.00 in0.0 mm 0.00 in0.0 mm 0.18 in4.6 mm
12:30 PM 51.8°F11.0°C 37.9°F3.3°C 59% 11.2 mph SW18.0 kmh SW 15.9 mph25.6 kmh 29.56 in1001.0 mb 0.00 in0.0 mm 0.00 in0.0 mm 0.18 in4.6 mm
12:40 PM 52.9°F11.6°C 38.1°F3.4°C 57% 9.6 mph SSW15.4 kmh SSW 15.2 mph24.5 kmh 29.55 in1000.7 mb 0.00 in0.0 mm 0.00 in0.0 mm 0.18 in4.6 mm
12:50 PM 52.7°F11.5°C 36.5°F2.5°C 54% 9.9 mph WSW15.9 kmh WSW 13.0 mph20.9 kmh 29.55 in1000.7 mb 0.00 in0.0 mm 0.00 in0.0 mm 0.18 in4.6 mm
01:00 PM 52.5°F11.4°C 36.4°F2.4°C 54% 10.4 mph SW16.7 kmh SW 13.0 mph20.9 kmh 29.55 in1000.7 mb 0.00 in0.0 mm 0.00 in0.0 mm 0.18 in4.6 mm
01:10 PM 52.5°F11.4°C 35.9°F2.2°C 53% 12.4 mph WSW20.0 kmh WSW 16.8 mph27.0 kmh 29.55 in1000.7 mb 0.00 in0.0 mm 0.00 in0.0 mm 0.18 in4.6 mm
01:20 PM 51.8°F11.0°C 35.7°F2.1°C 54% 11.3 mph WSW18.2 kmh WSW 20.6 mph33.2 kmh 29.55 in1000.7 mb 0.00 in0.0 mm 0.00 in0.0 mm 0.18 in4.6 mm
01:30 PM 51.3°F10.7°C 35.2°F1.8°C 54% 10.8 mph SW17.4 kmh SW 15.9 mph25.6 kmh 29.55 in1000.7 mb 0.00 in0.0 mm 0.00 in0.0 mm 0.18 in4.6 mm
01:40 PM 51.4°F10.8°C 36.3°F2.4°C 56% 8.5 mph SW13.7 kmh SW 10.7 mph17.2 kmh 29.55 in1000.7 mb 0.00 in0.0 mm 0.00 in0.0 mm 0.18 in4.6 mm
01:50 PM 51.6°F10.9°C 36.9°F2.7°C 57% 8.4 mph W13.5 kmh W 12.1 mph19.5 kmh 29.54 in1000.3 mb 0.00 in0.0 mm 0.00 in0.0 mm 0.18 in4.6 mm
02:00 PM 51.8°F11.0°C 36.6°F2.6°C 56% 9.7 mph WSW15.6 kmh WSW 13.6 mph21.9 kmh 29.55 in1000.7 mb 0.00 in0.0 mm 0.00 in0.0 mm 0.18 in4.6 mm
02:10 PM 51.8°F11.0°C 36.6°F2.6°C 56% 8.1 mph SW13.0 kmh SW 13.0 mph20.9 kmh 29.54 in1000.3 mb 0.00 in0.0 mm 0.00 in0.0 mm 0.18 in4.6 mm
02:20 PM 51.4°F10.8°C 35.8°F2.1°C 55% 8.8 mph SW14.2 kmh SW 13.0 mph20.9 kmh 29.54 in1000.3 mb 0.00 in0.0 mm 0.00 in0.0 mm 0.18 in4.6 mm
02:30 PM 51.3°F10.7°C 36.1°F2.3°C 56% 8.4 mph WSW13.5 kmh WSW 13.6 mph21.9 kmh 29.54 in1000.3 mb 0.00 in0.0 mm 0.00 in0.0 mm 0.18 in4.6 mm
02:40 PM 51.3°F10.7°C 37.9°F3.3°C 60% 5.1 mph SW8.2 kmh SW 7.6 mph12.2 kmh 29.53 in1000.0 mb 0.00 in0.0 mm 0.00 in0.0 mm 0.18 in4.6 mm
02:50 PM 51.1°F10.6°C 37.3°F2.9°C 59% 5.7 mph SW9.2 kmh SW 9.8 mph15.8 kmh 29.52 in999.7 mb 0.00 in0.0 mm 0.00 in0.0 mm 0.18 in4.6 mm
03:00 PM 49.8°F9.9°C 36.9°F2.7°C 61% 6.8 mph WSW10.9 kmh WSW 9.8 mph15.8 kmh 29.54 in1000.3 mb 0.00 in0.0 mm 0.00 in0.0 mm 0.18 in4.6 mm
03:10 PM 48.9°F9.4°C 36.9°F2.7°C 63% 7.2 mph W11.6 kmh W 10.7 mph17.2 kmh 29.54 in1000.3 mb 0.00 in0.0 mm 0.00 in0.0 mm 0.18 in4.6 mm
03:20 PM 48.6°F9.2°C 36.5°F2.5°C 63% 6.3 mph WSW10.1 kmh WSW 9.2 mph14.8 kmh 29.53 in1000.0 mb 0.00 in0.0 mm 0.00 in0.0 mm 0.18 in4.6 mm
03:30 PM 48.4°F9.1°C 36.4°F2.4°C 63% 5.1 mph WSW8.2 kmh WSW 7.6 mph12.2 kmh 29.52 in999.7 mb 0.00 in0.0 mm 0.00 in0.0 mm 0.18 in4.6 mm
03:40 PM 48.4°F9.1°C 36.4°F2.4°C 63% 4.7 mph W7.6 kmh W 6.9 mph11.1 kmh 29.52 in999.7 mb 0.00 in0.0 mm 0.00 in0.0 mm 0.18 in4.6 mm
03:50 PM 48.2°F9.0°C 36.6°F2.6°C 64% 3.6 mph SW5.8 kmh SW 4.5 mph7.2 kmh 29.52 in999.7 mb 0.00 in0.0 mm 0.00 in0.0 mm 0.18 in4.6 mm
04:00 PM 48.0°F8.9°C 36.8°F2.7°C 65% 3.3 mph SSW5.3 kmh SSW 5.4 mph8.7 kmh 29.52 in999.7 mb 0.00 in0.0 mm 0.00 in0.0 mm 0.18 in4.6 mm
04:10 PM 48.0°F8.9°C 37.2°F2.9°C 66% 3.0 mph SW4.8 kmh SW 6.9 mph11.1 kmh 29.51 in999.3 mb 0.00 in0.0 mm 0.00 in0.0 mm 0.18 in4.6 mm
04:20 PM 48.0°F8.9°C 38.0°F3.3°C 68% 2.5 mph SW4.0 kmh SW 6.0 mph9.7 kmh 29.50 in999.0 mb 0.00 in0.0 mm 0.00 in0.0 mm 0.18 in4.6 mm
04:30 PM 48.0°F8.9°C 38.7°F3.7°C 70% 4.9 mph SW7.9 kmh SW 9.8 mph15.8 kmh 29.51 in999.3 mb 0.00 in0.0 mm 0.00 in0.0 mm 0.18 in4.6 mm
04:40 PM 48.0°F8.9°C 39.1°F3.9°C 71% 5.5 mph SW8.9 kmh SW 7.6 mph12.2 kmh 29.50 in999.0 mb 0.01 in0.3 mm 0.06 in1.5 mm 0.19 in4.8 mm
04:50 PM 48.2°F9.0°C 39.2°F4.0°C 71% 5.7 mph SW9.2 kmh SW 9.8 mph15.8 kmh 29.50 in999.0 mb 0.01 in0.3 mm 0.00 in0.0 mm 0.19 in4.8 mm
05:00 PM 48.0°F8.9°C 39.1°F3.9°C 71% 5.1 mph SW8.2 kmh SW 7.6 mph12.2 kmh 29.49 in998.6 mb 0.01 in0.3 mm 0.00 in0.0 mm 0.19 in4.8 mm
05:10 PM 48.0°F8.9°C 39.1°F3.9°C 71% 6.1 mph S9.8 kmh S 9.2 mph14.8 kmh 29.50 in999.0 mb 0.01 in0.3 mm 0.00 in0.0 mm 0.19 in4.8 mm
05:20 PM 48.0°F8.9°C 39.1°F3.9°C 71% 6.9 mph SW11.1 kmh SW 11.4 mph18.3 kmh 29.48 in998.3 mb 0.01 in0.3 mm 0.00 in0.0 mm 0.19 in4.8 mm
05:30 PM 47.7°F8.7°C 38.7°F3.7°C 71% 4.0 mph SSW6.4 kmh SSW 7.6 mph12.2 kmh 29.49 in998.6 mb 0.01 in0.3 mm 0.00 in0.0 mm 0.19 in4.8 mm
05:40 PM 47.5°F8.6°C 38.6°F3.7°C 71% 4.9 mph SSW7.9 kmh SSW 9.2 mph14.8 kmh 29.49 in998.6 mb 0.00 in0.0 mm 0.00 in0.0 mm 0.19 in4.8 mm
05:50 PM 47.5°F8.6°C 38.6°F3.7°C 71% 7.5 mph SSW12.1 kmh SSW 10.7 mph17.2 kmh 29.49 in998.6 mb 0.00 in0.0 mm 0.00 in0.0 mm 0.19 in4.8 mm
06:00 PM 47.5°F8.6°C 38.6°F3.7°C 71% 8.2 mph SSW13.2 kmh SSW 10.7 mph17.2 kmh 29.48 in998.3 mb 0.00 in0.0 mm 0.00 in0.0 mm 0.19 in4.8 mm
06:10 PM 47.5°F8.6°C 38.9°F3.8°C 72% 5.9 mph SW9.5 kmh SW 9.2 mph14.8 kmh 29.48 in998.3 mb 0.00 in0.0 mm 0.00 in0.0 mm 0.19 in4.8 mm
06:20 PM 47.5°F8.6°C 39.3°F4.1°C 73% 6.8 mph S10.9 kmh S 9.8 mph15.8 kmh 29.47 in998.0 mb 0.00 in0.0 mm 0.00 in0.0 mm 0.19 in4.8 mm
06:30 PM 47.5°F8.6°C 39.3°F4.1°C 73% 6.9 mph S11.1 kmh S 9.2 mph14.8 kmh 29.47 in998.0 mb 0.00 in0.0 mm 0.00 in0.0 mm 0.19 in4.8 mm
06:40 PM 46.6°F8.1°C 38.4°F3.6°C 73% 9.3 mph SW15.0 kmh SW 15.2 mph24.5 kmh 29.47 in998.0 mb 0.04 in1.0 mm 0.24 in6.1 mm 0.22 in5.6 mm
06:50 PM 45.3°F7.4°C 39.5°F4.2°C 80% 5.6 mph SSW9.0 kmh SSW 7.6 mph12.2 kmh 29.46 in997.6 mb 0.08 in2.0 mm 0.24 in6.1 mm 0.27 in6.9 mm
07:00 PM 44.8°F7.1°C 39.3°F4.1°C 81% 5.3 mph SW8.5 kmh SW 8.3 mph13.4 kmh 29.47 in998.0 mb 0.11 in2.8 mm 0.04 in1.0 mm 0.30 in7.6 mm
07:10 PM 44.6°F7.0°C 39.5°F4.2°C 82% 6.5 mph SW10.5 kmh SW 9.2 mph14.8 kmh 29.46 in997.6 mb 0.12 in3.0 mm 0.06 in1.5 mm 0.31 in7.9 mm
07:20 PM 44.8°F7.1°C 39.9°F4.4°C 83% 5.0 mph WSW8.0 kmh WSW 8.3 mph13.4 kmh 29.46 in997.6 mb 0.13 in3.3 mm 0.06 in1.5 mm 0.32 in8.1 mm
07:30 PM 44.6°F7.0°C 39.8°F4.3°C 83% 3.1 mph SW5.0 kmh SW 6.0 mph9.7 kmh 29.45 in997.3 mb 0.13 in3.3 mm 0.00 in0.0 mm 0.32 in8.1 mm
07:40 PM 44.6°F7.0°C 40.1°F4.5°C 84% 5.0 mph SSW8.0 kmh SSW 7.6 mph12.2 kmh 29.45 in997.3 mb 0.11 in2.8 mm 0.00 in0.0 mm 0.34 in8.6 mm
07:50 PM 44.6°F7.0°C 40.1°F4.5°C 84% 4.5 mph WSW7.2 kmh WSW 8.3 mph13.4 kmh 29.44 in997.0 mb 0.07 in1.8 mm 0.00 in0.0 mm 0.34 in8.6 mm
08:00 PM 44.4°F6.9°C 39.9°F4.4°C 84% 1.4 mph SW2.3 kmh SW 6.9 mph11.1 kmh 29.43 in996.6 mb 0.05 in1.3 mm 0.00 in0.0 mm 0.34 in8.6 mm
08:10 PM 44.2°F6.8°C 40.0°F4.4°C 85% 1.1 mph SW1.8 kmh SW 5.4 mph8.7 kmh 29.43 in996.6 mb 0.05 in1.3 mm 0.00 in0.0 mm 0.35 in8.9 mm
08:20 PM 43.9°F6.6°C 39.7°F4.3°C 85% 1.8 mph S2.9 kmh S 6.0 mph9.7 kmh 29.42 in996.3 mb 0.04 in1.0 mm 0.00 in0.0 mm 0.35 in8.9 mm
08:30 PM 43.7°F6.5°C 39.8°F4.3°C 86% 4.1 mph SW6.6 kmh SW 8.3 mph13.4 kmh 29.41 in995.9 mb 0.05 in1.3 mm 0.06 in1.5 mm 0.37 in9.4 mm
08:40 PM 43.7°F6.5°C 39.8°F4.3°C 86% 2.6 mph S4.2 kmh S 6.0 mph9.7 kmh 29.41 in995.9 mb 0.02 in0.5 mm 0.00 in0.0 mm 0.37 in9.4 mm
08:50 PM 43.7°F6.5°C 39.8°F4.3°C 86% 0.4 mph S0.6 kmh S 1.6 mph2.6 kmh 29.40 in995.6 mb 0.02 in0.5 mm 0.00 in0.0 mm 0.37 in9.4 mm
09:00 PM 43.5°F6.4°C 39.9°F4.4°C 87% 0.9 mph SW1.4 kmh SW 3.8 mph6.1 kmh 29.39 in995.3 mb 0.04 in1.0 mm 0.02 in0.5 mm 0.38 in9.7 mm
09:10 PM 43.5°F6.4°C 39.9°F4.4°C 87% Calm Calm -- 29.38 in994.9 mb 0.02 in0.5 mm 0.00 in0.0 mm 0.38 in9.7 mm
09:20 PM 43.5°F6.4°C 39.9°F4.4°C 87% Calm Calm -- 29.38 in994.9 mb 0.02 in0.5 mm 0.00 in0.0 mm 0.38 in9.7 mm
09:30 PM 43.3°F6.3°C 39.7°F4.3°C 87% 0.1 mph SE0.2 kmh SE 0.7 mph1.1 kmh 29.37 in994.6 mb 0.01 in0.3 mm 0.00 in0.0 mm 0.38 in9.7 mm
09:40 PM 43.3°F6.3°C 40.0°F4.4°C 88% 0.1 mph S0.2 kmh S 0.7 mph1.1 kmh 29.36 in994.2 mb 0.01 in0.3 mm 0.00 in0.0 mm 0.38 in9.7 mm
09:50 PM 43.2°F6.2°C 39.9°F4.4°C 88% Calm Calm -- 29.36 in994.2 mb 0.01 in0.3 mm 0.00 in0.0 mm 0.38 in9.7 mm
10:00 PM 43.0°F6.1°C 39.7°F4.3°C 88% Calm Calm -- 29.35 in993.9 mb 0.00 in0.0 mm 0.00 in0.0 mm 0.38 in9.7 mm
10:10 PM 43.0°F6.1°C 39.7°F4.3°C 88% Calm Calm -- 29.35 in993.9 mb 0.00 in0.0 mm 0.00 in0.0 mm 0.38 in9.7 mm
10:20 PM 43.0°F6.1°C 39.7°F4.3°C 88% Calm Calm -- 29.34 in993.6 mb 0.00 in0.0 mm 0.00 in0.0 mm 0.38 in9.7 mm
10:30 PM 43.0°F6.1°C 39.7°F4.3°C 88% Calm Calm -- 29.33 in993.2 mb 0.00 in0.0 mm 0.00 in0.0 mm 0.38 in9.7 mm
10:40 PM 43.0°F6.1°C 39.7°F4.3°C 88% Calm Calm -- 29.33 in993.2 mb 0.00 in0.0 mm 0.00 in0.0 mm 0.38 in9.7 mm
10:50 PM 43.0°F6.1°C 39.7°F4.3°C 88% Calm Calm -- 29.32 in992.9 mb 0.00 in0.0 mm 0.00 in0.0 mm 0.38 in9.7 mm
11:00 PM 43.0°F6.1°C 39.7°F4.3°C 88% Calm Calm -- 29.31 in992.6 mb 0.00 in0.0 mm 0.00 in0.0 mm 0.38 in9.7 mm
11:10 PM 43.0°F6.1°C 39.7°F4.3°C 88% Calm Calm -- 29.31 in992.6 mb 0.00 in0.0 mm 0.00 in0.0 mm 0.38 in9.7 mm
11:20 PM 43.0°F6.1°C 39.7°F4.3°C 88% Calm Calm -- 29.30 in992.2 mb 0.00 in0.0 mm 0.00 in0.0 mm 0.38 in9.7 mm
11:30 PM 43.0°F6.1°C 39.7°F4.3°C 88% Calm Calm -- 29.29 in991.9 mb 0.00 in0.0 mm 0.00 in0.0 mm 0.38 in9.7 mm
11:40 PM 43.0°F6.1°C 39.7°F4.3°C 88% Calm Calm -- 29.28 in991.5 mb 0.00 in0.0 mm 0.00 in0.0 mm 0.38 in9.7 mm
11:50 PM 43.0°F6.1°C 39.7°F4.3°C 88% Calm Calm -- 29.27 in991.2 mb 0.00 in0.0 mm 0.00 in0.0 mm 0.38 in9.7 mm